createdAt,value
2023-10-15T00:00:25.913Z,81.86
2023-10-15T00:02:53.039Z,81.21
2023-10-15T00:05:21.701Z,79.51
2023-10-15T00:07:50.942Z,78.71
2023-10-15T00:10:20.228Z,78.18
2023-10-15T00:12:49.108Z,76.57
2023-10-15T00:15:20.128Z,76.27
2023-10-15T00:17:48.583Z,75.31
2023-10-15T00:20:19.165Z,75.50
2023-10-15T00:22:46.634Z,74.21
2023-10-15T00:25:15.362Z,74.23
2023-10-15T00:27:43.583Z,73.09
2023-10-15T00:30:14.457Z,71.82
2023-10-15T00:32:44.272Z,72.43
2023-10-15T00:35:15.310Z,70.24
2023-10-15T00:37:42.755Z,68.54
2023-10-15T00:40:17.661Z,67.06
2023-10-15T00:42:48.036Z,67.52
2023-10-15T00:45:21.825Z,66.76
2023-10-15T00:48:04.289Z,65.78
2023-10-15T00:50:32.902Z,66.36
2023-10-15T00:53:07.447Z,67.21
2023-10-15T00:55:38.926Z,66.69
2023-10-15T00:58:09.306Z,68.15
2023-10-15T01:00:54.706Z,67.46
2023-10-15T01:03:32.112Z,66.19
2023-10-15T01:06:05.355Z,66.95
2023-10-15T01:08:36.355Z,67.29
2023-10-15T01:11:10.547Z,66.92
2023-10-15T01:13:38.861Z,67.65
2023-10-15T01:16:09.830Z,68.89
2023-10-15T01:18:37.955Z,69.40
2023-10-15T01:21:08.413Z,69.83
2023-10-15T01:23:58.024Z,69.83
2023-10-15T01:26:25.087Z,70.80
2023-10-15T01:28:54.837Z,70.95
2023-10-15T01:31:21.504Z,72.16
2023-10-15T01:33:48.623Z,72.47
2023-10-15T01:36:19.685Z,73.69
2023-10-15T01:38:47.040Z,74.44
2023-10-15T01:41:14.889Z,75.00
2023-10-15T01:43:42.212Z,75.79
2023-10-15T01:46:11.824Z,74.98
2023-10-15T01:48:42.443Z,75.33
2023-10-15T01:51:09.075Z,75.13
2023-10-15T01:53:35.736Z,75.27
2023-10-15T01:56:05.852Z,75.66
2023-10-15T01:58:33.687Z,76.15
2023-10-15T02:01:32.897Z,77.36
2023-10-15T02:04:00.059Z,75.38
2023-10-15T02:06:26.727Z,77.11
2023-10-15T02:08:53.310Z,76.66
2023-10-15T02:11:23.069Z,76.41
2023-10-15T02:13:50.640Z,76.67
2023-10-15T02:16:19.012Z,77.54
2023-10-15T02:18:46.555Z,76.86
2023-10-15T02:21:17.627Z,77.03
2023-10-15T02:23:53.982Z,77.79
2023-10-15T02:26:31.202Z,77.46
2023-10-15T02:29:08.005Z,76.91
2023-10-15T02:31:42.791Z,77.10
2023-10-15T02:34:22.273Z,77.58
2023-10-15T02:36:48.982Z,77.20
2023-10-15T02:39:15.569Z,77.58
2023-10-15T02:41:42.641Z,76.67
2023-10-15T02:44:17.059Z,76.97
2023-10-15T02:46:51.007Z,77.37
2023-10-15T02:49:18.355Z,77.04
2023-10-15T02:51:47.013Z,76.79
2023-10-15T02:54:20.396Z,77.39
2023-10-15T02:56:47.237Z,78.10
2023-10-15T02:59:17.283Z,79.28
2023-10-15T03:01:47.346Z,78.29
2023-10-15T03:04:18.386Z,78.41
2023-10-15T03:06:49.685Z,79.14
2023-10-15T03:09:19.615Z,79.50
2023-10-15T03:11:51.682Z,80.14
2023-10-15T03:14:18.264Z,79.08
2023-10-15T03:16:45.629Z,79.50
2023-10-15T03:19:20.200Z,79.07
2023-10-15T03:21:47.059Z,79.49
2023-10-15T03:24:18.845Z,78.17
2023-10-15T03:26:48.929Z,78.51
2023-10-15T03:29:16.194Z,77.46
2023-10-15T03:32:03.656Z,76.89
2023-10-15T03:34:30.414Z,76.80
2023-10-15T03:36:59.845Z,76.52
2023-10-15T03:39:32.948Z,76.08
2023-10-15T03:42:12.563Z,75.10
2023-10-15T03:44:48.665Z,73.08
2023-10-15T03:47:17.340Z,73.30
2023-10-15T03:49:47.457Z,73.84
2023-10-15T03:52:23.626Z,73.32
2023-10-15T03:54:51.358Z,73.11
2023-10-15T03:57:19.256Z,71.80
2023-10-15T03:59:47.871Z,72.89
2023-10-15T04:02:24.368Z,72.19
2023-10-15T04:05:13.677Z,73.38
2023-10-15T04:07:48.353Z,72.98
2023-10-15T04:10:16.296Z,73.39
2023-10-15T04:12:44.779Z,73.19
2023-10-15T04:15:18.666Z,73.88
2023-10-15T04:17:46.713Z,73.61
2023-10-15T04:20:16.375Z,73.80
2023-10-15T04:22:48.348Z,72.87
2023-10-15T04:25:27.919Z,69.01
2023-10-15T04:27:55.878Z,69.98
2023-10-15T04:30:23.986Z,69.44
2023-10-15T04:32:50.580Z,69.05
2023-10-15T04:35:26.558Z,68.66
2023-10-15T04:37:59.414Z,69.93
2023-10-15T04:40:26.145Z,70.35
2023-10-15T04:42:53.047Z,69.61
2023-10-15T04:45:41.658Z,69.85
2023-10-15T04:48:14.419Z,69.96
2023-10-15T04:50:44.550Z,69.41
2023-10-15T04:53:18.837Z,69.94
2023-10-15T04:55:45.478Z,69.17
2023-10-15T04:58:12.474Z,69.73
2023-10-15T05:00:43.522Z,69.96
2023-10-15T05:03:13.012Z,66.51
2023-10-15T05:05:39.675Z,67.13
2023-10-15T05:08:12.300Z,67.86
2023-10-15T05:10:51.302Z,66.97
2023-10-15T05:13:18.618Z,65.70
2023-10-15T05:15:46.382Z,64.80
2023-10-15T05:18:13.264Z,66.12
2023-10-15T05:20:39.847Z,66.21
2023-10-15T05:23:06.685Z,65.88
2023-10-15T05:25:33.681Z,65.80
2023-10-15T05:28:03.452Z,62.63
2023-10-15T05:30:30.297Z,64.60
2023-10-15T05:32:57.063Z,64.32
2023-10-15T05:35:24.969Z,64.42
2023-10-15T05:37:51.604Z,63.25
2023-10-15T05:40:18.191Z,64.36
2023-10-15T05:42:44.918Z,63.67
2023-10-15T05:45:11.615Z,64.08
2023-10-15T05:47:38.317Z,64.52
2023-10-15T05:50:08.204Z,64.36
2023-10-15T05:52:34.824Z,63.53
2023-10-15T05:55:02.457Z,63.99
2023-10-15T05:57:29.863Z,63.90
2023-10-15T05:59:57.361Z,63.48
2023-10-15T06:02:24.671Z,63.04
2023-10-15T06:04:51.329Z,61.31
2023-10-15T06:07:17.884Z,60.87
2023-10-15T06:09:45.790Z,62.43
2023-10-15T06:12:14.349Z,62.51
2023-10-15T06:14:41.318Z,63.83
2023-10-15T06:17:08.507Z,63.02
2023-10-15T06:19:35.804Z,62.04
2023-10-15T06:22:02.879Z,62.52
2023-10-15T06:24:29.482Z,62.87
2023-10-15T06:26:56.068Z,61.67
2023-10-15T06:29:22.693Z,62.39
2023-10-15T06:31:49.286Z,59.79
2023-10-15T06:34:17.278Z,60.16
2023-10-15T06:36:44.060Z,60.66
2023-10-15T06:39:10.736Z,60.86
2023-10-15T06:41:37.886Z,60.80
2023-10-15T06:44:04.989Z,59.73
2023-10-15T06:46:32.742Z,58.98
2023-10-15T06:48:59.674Z,57.00
2023-10-15T06:51:27.542Z,54.73
2023-10-15T06:53:54.311Z,57.79
2023-10-15T06:56:20.959Z,56.75
2023-10-15T06:58:48.742Z,56.03
2023-10-15T07:01:15.551Z,55.87
2023-10-15T07:03:42.252Z,55.05
2023-10-15T07:06:09.947Z,56.08
2023-10-15T07:08:36.745Z,56.74
2023-10-15T07:11:06.390Z,56.46
2023-10-15T07:13:33.439Z,55.52
2023-10-15T07:16:01.893Z,55.83
2023-10-15T07:18:28.746Z,55.78
2023-10-15T07:20:55.985Z,57.66
2023-10-15T07:23:22.548Z,57.30
2023-10-15T07:25:49.213Z,57.31
2023-10-15T07:28:15.831Z,58.40
2023-10-15T07:30:42.401Z,58.46
2023-10-15T07:33:09.744Z,58.25
2023-10-15T07:35:36.639Z,58.79
2023-10-15T07:38:04.095Z,58.75
2023-10-15T07:40:34.084Z,59.15
2023-10-15T07:43:01.722Z,57.43
2023-10-15T07:45:30.279Z,57.49
2023-10-15T07:48:01.022Z,57.28
2023-10-15T07:50:29.120Z,57.20
2023-10-15T07:52:56.499Z,56.45
2023-10-15T07:55:27.583Z,56.83
2023-10-15T07:57:54.935Z,56.27
2023-10-15T08:00:25.209Z,55.05
2023-10-15T08:02:59.127Z,55.04
2023-10-15T08:05:33.057Z,55.23
2023-10-15T08:08:02.253Z,55.16
2023-10-15T08:10:33.774Z,55.29
2023-10-15T08:13:02.995Z,55.58
2023-10-15T08:15:29.680Z,54.98
2023-10-15T08:17:58.463Z,55.47
2023-10-15T08:20:25.318Z,54.70
2023-10-15T08:22:51.963Z,55.24
2023-10-15T08:25:22.903Z,56.42
2023-10-15T08:27:50.234Z,57.05
2023-10-15T08:30:18.779Z,56.93
2023-10-15T08:32:47.040Z,56.95
2023-10-15T08:35:17.818Z,57.51
2023-10-15T08:37:45.719Z,56.27
2023-10-15T08:40:20.023Z,56.91
2023-10-15T08:43:18.556Z,56.94
2023-10-15T08:45:46.809Z,56.75
2023-10-15T08:48:14.970Z,55.76
2023-10-15T08:50:41.970Z,56.06
2023-10-15T08:53:09.445Z,55.81
2023-10-15T08:55:39.641Z,53.69
2023-10-15T08:58:08.602Z,53.63
2023-10-15T09:00:37.812Z,51.79
2023-10-15T09:03:05.045Z,53.47
2023-10-15T09:05:38.315Z,53.34
2023-10-15T09:08:09.474Z,53.51
2023-10-15T09:10:42.509Z,52.80
2023-10-15T09:13:21.133Z,51.28
2023-10-15T09:15:49.630Z,52.24
2023-10-15T09:18:17.411Z,52.58
2023-10-15T09:20:47.116Z,52.66
2023-10-15T09:23:14.044Z,52.75
2023-10-15T09:25:42.613Z,51.32
2023-10-15T09:28:09.456Z,49.74
2023-10-15T09:30:36.039Z,50.20
2023-10-15T09:33:02.681Z,51.64
2023-10-15T09:35:30.792Z,50.82
2023-10-15T09:37:58.089Z,50.71
2023-10-15T09:40:25.895Z,51.70
2023-10-15T09:42:55.156Z,51.35
2023-10-15T09:45:25.771Z,52.18
2023-10-15T09:47:58.747Z,51.72
2023-10-15T09:50:28.718Z,52.27
2023-10-15T09:53:02.469Z,53.41
2023-10-15T09:55:33.549Z,54.16
2023-10-15T09:58:12.193Z,54.58
2023-10-15T10:00:55.930Z,55.05
2023-10-15T10:03:50.387Z,55.57
2023-10-15T10:07:02.283Z,55.94
2023-10-15T10:09:38.116Z,56.23
2023-10-15T10:12:14.604Z,58.35
2023-10-15T10:15:02.708Z,60.45
2023-10-15T10:17:30.890Z,61.55
2023-10-15T10:19:57.957Z,60.61
2023-10-15T10:22:28.445Z,62.12
2023-10-15T10:24:56.146Z,64.97
2023-10-15T10:27:22.722Z,65.60
2023-10-15T10:30:15.923Z,65.81
2023-10-15T10:32:43.044Z,67.31
2023-10-15T10:35:20.111Z,66.81
2023-10-15T10:38:11.849Z,66.86
2023-10-15T10:41:19.414Z,68.47
2023-10-15T10:43:59.325Z,67.91
2023-10-15T10:46:42.638Z,66.53
2023-10-15T10:49:20.125Z,65.60
2023-10-15T10:52:16.303Z,66.32
2023-10-15T10:54:43.776Z,66.50
2023-10-15T10:57:14.036Z,65.41
2023-10-15T10:59:43.340Z,65.24
2023-10-15T11:02:17.600Z,65.69
2023-10-15T11:04:44.713Z,65.81
2023-10-15T11:07:12.609Z,65.81
2023-10-15T11:09:39.591Z,66.04
2023-10-15T11:12:13.596Z,66.01
2023-10-15T11:14:41.679Z,65.35
2023-10-15T11:17:11.585Z,66.25
2023-10-15T11:19:39.326Z,65.74
2023-10-15T11:22:06.936Z,65.57
2023-10-15T11:24:33.951Z,65.39
2023-10-15T11:27:01.134Z,66.35
2023-10-15T11:29:32.186Z,65.84
2023-10-15T11:31:59.970Z,66.31
2023-10-15T11:34:29.446Z,66.80
2023-10-15T11:36:57.754Z,66.16
2023-10-15T11:39:27.157Z,66.33
2023-10-15T11:41:57.463Z,66.87
2023-10-15T11:44:32.082Z,67.37
2023-10-15T11:47:10.447Z,67.13
2023-10-15T11:49:44.296Z,66.35
2023-10-15T11:52:16.794Z,65.11
2023-10-15T11:54:51.507Z,65.81
2023-10-15T11:57:26.481Z,64.81
2023-10-15T11:59:56.917Z,64.72
2023-10-15T12:02:25.605Z,63.98
2023-10-15T12:04:53.413Z,64.71
2023-10-15T12:07:23.036Z,63.14
2023-10-15T12:09:50.770Z,59.02
2023-10-15T12:12:19.307Z,60.08
2023-10-15T12:14:46.160Z,59.52
2023-10-15T12:17:14.140Z,60.18
2023-10-15T12:19:42.831Z,60.67
2023-10-15T12:22:13.472Z,61.03
2023-10-15T12:24:41.672Z,61.65
2023-10-15T12:27:08.272Z,62.43
2023-10-15T12:29:34.888Z,63.35
2023-10-15T12:32:01.562Z,63.85
2023-10-15T12:34:28.180Z,64.03
2023-10-15T12:36:54.839Z,63.98
2023-10-15T12:39:28.645Z,65.00
2023-10-15T12:41:55.650Z,66.02
2023-10-15T12:44:24.084Z,67.03
2023-10-15T12:46:52.305Z,66.97
2023-10-15T12:49:20.647Z,67.18
2023-10-15T12:51:47.678Z,66.90
2023-10-15T12:54:14.897Z,66.75
2023-10-15T12:56:41.647Z,65.79
2023-10-15T12:59:08.381Z,64.67
2023-10-15T13:01:35.540Z,64.05
2023-10-15T13:04:02.220Z,63.17
2023-10-15T13:06:28.809Z,63.68
2023-10-15T13:08:57.065Z,63.26
2023-10-15T13:11:24.248Z,64.15
2023-10-15T13:13:50.966Z,63.94
2023-10-15T13:16:19.518Z,63.70
2023-10-15T13:18:47.311Z,63.02
2023-10-15T13:21:15.530Z,64.50
2023-10-15T13:23:42.255Z,64.22
2023-10-15T13:26:09.932Z,64.84
2023-10-15T13:28:37.153Z,65.38
2023-10-15T13:31:04.264Z,66.33
2023-10-15T13:33:31.837Z,66.43
2023-10-15T13:35:59.058Z,66.86
2023-10-15T13:38:27.128Z,68.73
2023-10-15T13:40:53.977Z,69.00
2023-10-15T13:43:20.935Z,72.99
2023-10-15T13:45:47.577Z,75.27
2023-10-15T13:48:14.333Z,76.14
2023-10-15T13:50:41.180Z,75.78
2023-10-15T13:53:07.815Z,75.69
2023-10-15T13:55:34.493Z,76.75
2023-10-15T13:58:01.292Z,79.00
2023-10-15T14:00:29.341Z,79.27
2023-10-15T14:02:57.817Z,79.70
2023-10-15T14:05:26.865Z,81.64
2023-10-15T14:07:55.459Z,81.06
2023-10-15T14:10:22.427Z,80.85
2023-10-15T14:12:51.796Z,81.35
2023-10-15T14:15:21.610Z,83.05
2023-10-15T14:17:48.301Z,83.54
2023-10-15T14:20:19.731Z,83.40
2023-10-15T14:22:47.382Z,83.31
2023-10-15T14:25:14.843Z,81.99
2023-10-15T14:27:41.773Z,81.83
2023-10-15T14:30:08.961Z,81.13
2023-10-15T14:32:36.251Z,80.53
2023-10-15T14:35:06.562Z,78.54
2023-10-15T14:37:33.963Z,78.05
2023-10-15T14:40:01.472Z,78.24
2023-10-15T14:42:28.307Z,78.40
2023-10-15T14:44:55.418Z,78.02
2023-10-15T14:47:22.320Z,78.80
2023-10-15T14:49:49.078Z,78.63
2023-10-15T14:52:15.683Z,78.24
2023-10-15T14:54:42.408Z,77.98
2023-10-15T14:57:16.556Z,77.26
2023-10-15T14:59:43.202Z,77.19
2023-10-15T15:02:11.452Z,76.17
2023-10-15T15:04:38.279Z,75.86
2023-10-15T15:07:04.881Z,75.57
2023-10-15T15:09:31.450Z,75.39
2023-10-15T15:11:58.423Z,76.65
2023-10-15T15:14:25.182Z,75.67
2023-10-15T15:16:52.145Z,77.35
2023-10-15T15:19:19.238Z,77.02
2023-10-15T15:21:46.008Z,79.45
2023-10-15T15:24:16.910Z,81.00
2023-10-15T15:26:45.160Z,80.96
2023-10-15T15:29:14.721Z,79.93
2023-10-15T15:31:41.950Z,80.00
2023-10-15T15:34:09.706Z,79.09
2023-10-15T15:36:36.253Z,80.55
2023-10-15T15:39:04.985Z,78.87
2023-10-15T15:41:33.821Z,78.57
2023-10-15T15:44:01.616Z,78.25
2023-10-15T15:46:29.357Z,77.56
2023-10-15T15:48:57.618Z,77.56
2023-10-15T15:51:24.239Z,78.29
2023-10-15T15:53:51.993Z,78.86
2023-10-15T15:56:18.756Z,78.87
2023-10-15T15:58:46.969Z,78.73
2023-10-15T16:01:37.595Z,78.67
2023-10-15T16:04:10.621Z,78.39
2023-10-15T16:06:37.314Z,78.93
2023-10-15T16:09:04.040Z,78.82
2023-10-15T16:11:31.488Z,78.51
2023-10-15T16:13:58.507Z,77.65
2023-10-15T16:16:26.109Z,77.44
2023-10-15T16:18:53.578Z,77.02
2023-10-15T16:21:20.228Z,77.90
2023-10-15T16:23:46.861Z,77.46
2023-10-15T16:26:13.981Z,78.41
2023-10-15T16:28:40.753Z,77.38
2023-10-15T16:31:07.441Z,77.39
2023-10-15T16:33:34.077Z,77.24
2023-10-15T16:36:00.613Z,76.96
2023-10-15T16:38:28.066Z,76.96
2023-10-15T16:40:54.695Z,76.25
2023-10-15T16:43:21.289Z,77.19
2023-10-15T16:45:50.808Z,76.67
2023-10-15T16:48:17.760Z,76.60
2023-10-15T16:50:44.536Z,76.79
2023-10-15T16:53:14.038Z,77.08
2023-10-15T16:55:41.679Z,76.22
2023-10-15T16:58:08.554Z,77.33
2023-10-15T17:00:35.669Z,77.07
2023-10-15T17:03:05.566Z,76.80
2023-10-15T17:05:32.368Z,76.86
2023-10-15T17:07:59.556Z,77.07
2023-10-15T17:10:26.135Z,77.14
2023-10-15T17:12:53.267Z,76.23
2023-10-15T17:15:19.893Z,75.30
2023-10-15T17:17:46.542Z,73.47
2023-10-15T17:20:17.063Z,72.09
2023-10-15T17:22:48.755Z,69.38
2023-10-15T17:25:15.447Z,69.56
2023-10-15T17:27:42.024Z,71.36
2023-10-15T17:30:18.395Z,69.77
2023-10-15T17:32:46.130Z,71.00
2023-10-15T17:35:13.130Z,72.30
2023-10-15T17:40:27.535Z,74.71
2023-10-15T17:42:54.289Z,76.40
2023-10-15T17:45:24.589Z,76.75
2023-10-15T17:47:51.395Z,77.75
2023-10-15T17:48:02.823Z,73.62
2023-10-15T17:50:18.098Z,76.88
2023-10-15T17:52:44.705Z,76.16
2023-10-15T17:55:11.412Z,75.83
2023-10-15T17:57:38.048Z,74.69
2023-10-15T18:00:12.782Z,74.78
2023-10-15T18:02:39.650Z,75.00
2023-10-15T18:05:06.496Z,75.61
2023-10-15T18:07:33.120Z,75.46
2023-10-15T18:09:59.724Z,75.70
2023-10-15T18:12:27.007Z,75.27
2023-10-15T18:14:54.989Z,74.81
2023-10-15T18:17:22.153Z,74.71
2023-10-15T18:19:50.964Z,75.62
2023-10-15T18:22:17.828Z,75.28
2023-10-15T18:24:44.929Z,75.57
2023-10-15T18:27:11.611Z,75.09
2023-10-15T18:29:38.261Z,75.29
2023-10-15T18:32:06.672Z,75.95
2023-10-15T18:34:33.522Z,75.75
2023-10-15T18:37:00.155Z,75.22
2023-10-15T18:39:26.846Z,75.10
2023-10-15T18:41:53.477Z,75.49
2023-10-15T18:44:21.024Z,74.95
2023-10-15T18:46:48.882Z,74.63
2023-10-15T18:49:16.108Z,74.05
2023-10-15T18:51:42.768Z,73.52
2023-10-15T18:54:10.498Z,74.31
2023-10-15T18:56:37.396Z,73.93
2023-10-15T18:59:04.458Z,73.67
2023-10-15T19:01:33.035Z,73.82
2023-10-15T19:04:00.224Z,74.40
2023-10-15T19:06:26.985Z,73.66
2023-10-15T19:08:54.035Z,74.27
2023-10-15T19:11:20.654Z,74.25
2023-10-15T19:13:47.247Z,73.79
2023-10-15T19:16:13.776Z,73.49
2023-10-15T19:18:45.836Z,74.00
2023-10-15T19:21:13.495Z,73.35
2023-10-15T19:23:40.469Z,72.94
2023-10-15T19:26:08.020Z,72.82
2023-10-15T19:28:35.516Z,72.35
2023-10-15T19:31:03.348Z,71.98
2023-10-15T19:33:31.842Z,71.43
2023-10-15T19:36:02.349Z,71.91
2023-10-15T19:38:31.238Z,70.83
2023-10-15T19:41:01.676Z,71.29
2023-10-15T19:43:32.080Z,70.41
2023-10-15T19:45:59.052Z,70.92
2023-10-15T19:48:25.930Z,68.64
2023-10-15T19:50:53.917Z,68.83
2023-10-15T19:53:27.500Z,69.33
2023-10-15T19:55:54.489Z,69.35
2023-10-15T19:58:21.092Z,69.66
2023-10-15T20:00:50.616Z,70.03
2023-10-15T20:03:18.406Z,71.32
2023-10-15T20:05:47.005Z,70.54
2023-10-15T20:08:15.885Z,72.58
2023-10-15T20:10:43.594Z,73.23
2023-10-15T20:13:11.172Z,75.46
2023-10-15T20:15:39.247Z,75.97
2023-10-15T20:18:06.241Z,76.73
2023-10-15T20:20:32.956Z,76.71
2023-10-15T20:22:59.552Z,77.45
2023-10-15T20:25:26.140Z,77.73
2023-10-15T20:27:52.960Z,78.24
2023-10-15T20:30:19.689Z,78.29
2023-10-15T20:32:55.613Z,79.95
2023-10-15T20:35:26.026Z,79.31
2023-10-15T20:37:53.183Z,79.26
2023-10-15T20:40:21.841Z,78.74
2023-10-15T20:42:49.916Z,78.50
2023-10-15T20:45:18.923Z,78.41
2023-10-15T20:47:47.565Z,77.68
2023-10-15T20:50:16.406Z,78.18
2023-10-15T20:52:45.389Z,78.12
2023-10-15T20:55:12.799Z,77.90
2023-10-15T20:57:40.796Z,77.86
2023-10-15T21:00:12.127Z,77.90
2023-10-15T21:02:43.284Z,78.57
2023-10-15T21:05:11.505Z,78.40
2023-10-15T21:07:40.335Z,78.26
2023-10-15T21:10:08.685Z,78.51
2023-10-15T21:12:35.776Z,78.92
2023-10-15T21:15:05.220Z,78.84
2023-10-15T21:17:31.989Z,79.84
2023-10-15T21:19:58.746Z,79.98
2023-10-15T21:22:25.353Z,79.75
2023-10-15T21:24:52.139Z,79.61
2023-10-15T21:27:20.587Z,80.81
2023-10-15T21:29:47.615Z,80.49
2023-10-15T21:32:14.339Z,80.68
2023-10-15T21:34:41.373Z,80.31
2023-10-15T21:37:08.028Z,80.15
2023-10-15T21:39:34.779Z,80.47
2023-10-15T21:42:01.506Z,80.44
2023-10-15T21:44:28.926Z,80.92
2023-10-15T21:46:56.463Z,81.38
2023-10-15T21:49:23.165Z,81.78
2023-10-15T21:51:49.785Z,81.87
2023-10-15T21:54:17.014Z,81.77
2023-10-15T21:56:43.983Z,81.85
2023-10-15T21:59:13.698Z,83.76
2023-10-15T22:01:40.487Z,84.96
2023-10-15T22:04:08.061Z,84.28
2023-10-15T22:06:36.732Z,84.32
2023-10-15T22:09:12.353Z,84.33
2023-10-15T22:11:40.499Z,86.36
2023-10-15T22:14:08.241Z,86.70
2023-10-15T22:16:35.280Z,87.31
2023-10-15T22:19:07.090Z,88.09
2023-10-15T22:21:34.262Z,87.98
2023-10-15T22:24:06.952Z,89.26
2023-10-15T22:26:36.050Z,89.38
2023-10-15T22:29:07.589Z,89.90
2023-10-15T22:31:34.534Z,89.94
2023-10-15T22:34:01.539Z,90.58
2023-10-15T22:36:28.126Z,90.36
2023-10-15T22:38:54.693Z,90.56
2023-10-15T22:41:22.029Z,90.58
2023-10-15T22:43:48.638Z,90.53
2023-10-15T22:46:15.324Z,90.49
2023-10-15T22:48:41.961Z,90.22
2023-10-15T22:51:08.736Z,91.50
2023-10-15T22:53:35.479Z,91.63
2023-10-15T22:56:02.082Z,92.01
2023-10-15T22:58:28.739Z,90.90
2023-10-15T23:00:55.971Z,91.21
2023-10-15T23:03:23.099Z,91.45
2023-10-15T23:05:51.189Z,90.63
2023-10-15T23:08:17.785Z,90.31
2023-10-15T23:10:44.313Z,90.79
2023-10-15T23:13:11.241Z,89.97
2023-10-15T23:15:41.728Z,90.33
2023-10-15T23:18:10.378Z,90.19
2023-10-15T23:20:41.600Z,89.93
2023-10-15T23:23:19.181Z,88.86
2023-10-15T23:25:46.116Z,88.62
2023-10-15T23:28:13.010Z,88.93
2023-10-15T23:30:45.648Z,88.39
2023-10-15T23:33:12.684Z,87.55
2023-10-15T23:35:39.467Z,88.52
2023-10-15T23:38:08.567Z,89.15
2023-10-15T23:40:38.806Z,89.71
2023-10-15T23:43:12.013Z,89.92
2023-10-15T23:45:39.462Z,90.40
2023-10-15T23:48:12.234Z,90.65
2023-10-15T23:50:45.915Z,89.75
2023-10-15T23:53:20.688Z,89.26
2023-10-15T23:55:48.236Z,88.87
2023-10-15T23:58:14.794Z,88.15
